Time;durP1;ratioP1;P1;durP2;ratioP2;P2;SDS_P1;SDS_P2;PMS_P1;PMS_P2;Temp;Humidity;BMP_temperature;BMP_pressure;BME280_temperature;BME280_humidity;BME280_pressure;Samples;Min_cycle;Max_cycle;Signal;HPM_P1;HPM_P2
2024/02/06 00:00:50;;;;;;;2.83;0.93;;;;;;;6.49;66.96;93296.81;2091771;28;20036;-81
2024/02/06 00:01:51;;;;;;;2.55;0.80;;;;;;;7.26;58.78;93304.81;2093849;28;20028;-81
2024/02/06 00:02:52;;;;;;;3.65;1.10;;;;;;;7.21;60.06;93297.25;2091593;28;20033;-80
2024/02/06 00:03:54;;;;;;;4.30;0.77;;;;;;;7.33;58.64;93299.44;2089663;28;20040;-80
2024/02/06 00:04:55;;;;;;;4.15;1.15;;;;;;;7.26;61.38;93294.19;2087550;28;20124;-80
2024/02/06 00:05:57;;;;;;;4.28;0.90;;;;;;;7.17;60.78;93291.19;2088050;28;20040;-80
2024/02/06 00:06:58;;;;;;;2.60;0.95;;;;;;;7.39;58.62;93291.81;2071582;28;20166;-83
2024/02/06 00:07:59;;;;;;;2.60;0.73;;;;;;;7.40;59.04;93291.41;2015842;28;24072;-83
2024/02/06 00:09:01;;;;;;;3.95;0.85;;;;;;;7.49;56.88;93291.72;2029193;28;21211;-81
2024/02/06 00:10:02;;;;;;;2.05;0.90;;;;;;;7.30;60.64;93284.28;2016449;28;20057;-80
2024/02/06 00:11:04;;;;;;;2.83;1.08;;;;;;;7.35;58.20;93294.50;2023085;28;20032;-79
2024/02/06 00:12:05;;;;;;;2.75;1.00;;;;;;;7.45;57.17;93288.34;2036139;28;20036;-78
2024/02/06 00:13:06;;;;;;;1.95;0.65;;;;;;;7.42;58.04;93289.13;2040281;28;20400;-80
2024/02/06 00:14:10;;;;;;;4.20;1.10;;;;;;;7.69;57.45;93289.31;2046857;28;20063;-79
2024/02/06 00:15:11;;;;;;;1.75;1.00;;;;;;;7.66;57.79;93295.41;2033151;28;20060;-80
2024/02/06 00:16:13;;;;;;;4.43;0.90;;;;;;;7.67;56.46;93288.19;2035176;28;20029;-78
2024/02/06 00:17:14;;;;;;;3.22;0.85;;;;;;;7.60;57.87;93280.28;2051542;28;20021;-80
2024/02/06 00:18:15;;;;;;;1.80;0.75;;;;;;;7.66;57.40;93278.69;2052577;28;20025;-79
2024/02/06 00:19:16;;;;;;;1.92;0.90;;;;;;;7.68;56.80;93282.47;2064349;28;20040;-79
2024/02/06 00:20:19;;;;;;;5.40;0.98;;;;;;;7.69;57.36;93276.00;2073025;28;20036;-79
2024/02/06 00:21:22;;;;;;;3.08;1.33;;;;;;;8.01;53.38;93280.28;2084343;28;20151;-80
2024/02/06 00:22:25;;;;;;;3.25;1.08;;;;;;;7.98;55.28;93279.16;2097226;28;20505;-80
2024/02/06 00:23:26;;;;;;;2.80;1.00;;;;;;;7.88;55.23;93279.25;2105156;28;20024;-83
2024/02/06 00:24:27;;;;;;;3.80;0.95;;;;;;;7.92;54.38;93290.63;2083142;28;20021;-84
2024/02/06 00:25:28;;;;;;;5.95;1.05;;;;;;;8.21;52.50;93275.13;2088186;28;20029;-83
2024/02/06 00:26:29;;;;;;;3.90;1.00;;;;;;;8.12;54.39;93275.63;2082750;28;20026;-83
2024/02/06 00:27:30;;;;;;;1.88;0.80;;;;;;;8.06;54.72;93275.28;2088999;28;20025;-83
2024/02/06 00:28:31;;;;;;;2.15;1.08;;;;;;;8.08;54.33;93273.00;2074161;28;20025;-80
2024/02/06 00:29:32;;;;;;;5.18;1.00;;;;;;;7.92;56.41;93275.41;2081723;28;20067;-83
2024/02/06 00:30:33;;;;;;;4.95;1.30;;;;;;;7.79;55.29;93269.81;2089955;28;20079;-82
2024/02/06 00:31:34;;;;;;;5.05;0.90;;;;;;;7.86;55.00;93270.91;2098085;28;20032;-83
2024/02/06 00:32:35;;;;;;;2.70;0.90;;;;;;;7.76;55.08;93278.59;2081782;28;20025;-80
2024/02/06 00:33:36;;;;;;;5.47;1.35;;;;;;;7.64;58.04;93276.44;2073250;28;20034;-83
2024/02/06 00:34:37;;;;;;;3.78;1.15;;;;;;;7.90;53.19;93271.63;2073283;28;20037;-82
2024/02/06 00:35:38;;;;;;;2.88;1.23;;;;;;;7.91;54.28;93267.84;2089570;28;20017;-82
2024/02/06 00:36:39;;;;;;;4.55;1.17;;;;;;;7.78;53.70;93263.00;2073562;28;20022;-82
2024/02/06 00:37:41;;;;;;;3.40;1.20;;;;;;;8.06;53.68;93256.66;2065411;28;20054;-81
2024/02/06 00:38:42;;;;;;;3.50;0.90;;;;;;;7.84;54.87;93265.97;2089065;28;20471;-80
2024/02/06 00:39:43;;;;;;;5.30;1.08;;;;;;;7.69;54.63;93265.38;2074459;28;20029;-81
2024/02/06 00:40:44;;;;;;;1.77;0.80;;;;;;;7.58;55.58;93259.38;2067516;28;20172;-81
2024/02/06 00:41:46;;;;;;;4.75;1.23;;;;;;;7.57;56.48;93260.53;2092950;28;20481;-81
2024/02/06 00:42:47;;;;;;;4.70;1.05;;;;;;;7.39;55.72;93265.22;2097210;28;20028;-79
2024/02/06 00:43:48;;;;;;;4.60;1.10;;;;;;;7.25;58.76;93266.09;2089595;28;20036;-82
2024/02/06 00:44:49;;;;;;;3.50;1.00;;;;;;;7.26;57.17;93262.28;2083237;28;20026;-82
2024/02/06 00:45:53;;;;;;;3.38;0.90;;;;;;;7.18;57.37;93264.22;2075626;28;20034;-84
2024/02/06 00:46:54;;;;;;;2.10;0.82;;;;;;;7.01;59.80;93262.41;2062181;28;20036;-82
2024/02/06 00:47:55;;;;;;;3.75;1.20;;;;;;;6.81;60.44;93262.16;2076810;28;20030;-80
2024/02/06 00:48:56;;;;;;;3.38;1.00;;;;;;;6.92;60.16;93262.09;2082169;28;20026;-82
2024/02/06 00:50:04;;;;;;;2.95;1.02;;;;;;;7.07;59.76;93268.84;2087188;28;20032;-81
2024/02/06 00:51:05;;;;;;;4.25;1.17;;;;;;;6.97;60.91;93261.69;2088035;28;20024;-80
2024/02/06 00:52:06;;;;;;;3.40;1.05;;;;;;;6.84;60.61;93268.59;2080863;28;20747;-82
2024/02/06 00:53:07;;;;;;;3.15;1.10;;;;;;;6.73;62.33;93269.41;2093883;28;20032;-81
2024/02/06 00:54:08;;;;;;;3.92;1.10;;;;;;;6.88;60.25;93278.06;2089787;28;20020;-82
2024/02/06 00:55:09;;;;;;;6.10;1.10;;;;;;;6.89;59.99;93268.97;2085405;28;20026;-82
2024/02/06 00:56:10;;;;;;;3.25;0.82;;;;;;;6.99;56.75;93270.03;2086060;28;20025;-81
2024/02/06 00:57:11;;;;;;;5.28;1.20;;;;;;;7.28;56.57;93266.03;2068584;28;20121;-82
2024/02/06 00:58:14;;;;;;;4.43;1.10;;;;;;;7.65;53.37;93266.53;2086372;28;20080;-82
2024/02/06 00:59:15;;;;;;;2.20;0.90;;;;;;;7.67;54.33;93270.31;2093105;28;20028;-80
2024/02/06 01:00:16;;;;;;;3.38;1.20;;;;;;;7.60;55.06;93262.41;2094408;28;20058;-80
2024/02/06 01:01:17;;;;;;;4.18;1.55;;;;;;;7.67;54.13;93266.88;2092258;28;20032;-83
2024/02/06 01:02:18;;;;;;;3.25;1.13;;;;;;;7.72;54.29;93267.22;2087417;28;20033;-82
2024/02/06 01:03:20;;;;;;;4.63;1.52;;;;;;;7.51;55.69;93270.81;2075378;28;20025;-83
2024/02/06 01:04:21;;;;;;;4.22;1.30;;;;;;;7.49;56.51;93264.38;2073111;28;20028;-83
2024/02/06 01:05:22;;;;;;;3.70;1.10;;;;;;;7.47;54.81;93269.34;2081563;28;20493;-80
2024/02/06 01:06:24;;;;;;;5.30;1.10;;;;;;;7.43;56.29;93269.38;2096977;28;20048;-82
2024/02/06 01:07:25;;;;;;;3.78;1.15;;;;;;;7.41;57.24;93273.56;2080518;28;20026;-82
2024/02/06 01:08:26;;;;;;;4.47;1.40;;;;;;;7.31;56.98;93269.81;2073365;28;20026;-83
2024/02/06 01:09:27;;;;;;;1.90;1.00;;;;;;;7.27;56.60;93269.09;2089728;28;20024;-80
2024/02/06 01:10:37;;;;;;;3.65;1.10;;;;;;;7.38;55.81;93266.38;2101891;28;20025;-81
2024/02/06 01:11:38;;;;;;;3.25;1.73;;;;;;;7.45;55.51;93267.06;2080094;28;20091;-81
2024/02/06 01:12:39;;;;;;;4.07;1.02;;;;;;;7.49;55.33;93259.06;2070424;28;20033;-81
2024/02/06 01:13:40;;;;;;;3.88;1.38;;;;;;;7.67;53.14;93264.22;2074441;28;20029;-81
2024/02/06 01:14:41;;;;;;;3.90;1.20;;;;;;;7.68;52.76;93271.84;2073415;28;20080;-81
2024/02/06 01:15:42;;;;;;;5.07;1.40;;;;;;;7.77;54.07;93268.69;2073315;28;20103;-80
2024/02/06 01:16:44;;;;;;;3.60;1.20;;;;;;;7.87;52.91;93259.13;2075508;28;20490;-83
2024/02/06 01:17:45;;;;;;;5.35;1.20;;;;;;;7.81;54.86;93256.91;2073386;28;20501;-80
2024/02/06 01:18:46;;;;;;;5.63;2.25;;;;;;;7.84;54.07;93263.31;2075798;28;20050;-84
2024/02/06 01:19:47;;;;;;;1.67;1.00;;;;;;;7.87;54.32;93256.47;2080180;28;20036;-83
2024/02/06 01:20:48;;;;;;;5.28;1.20;;;;;;;7.66;55.66;93257.41;2080074;28;20076;-81
2024/02/06 01:21:49;;;;;;;4.03;1.90;;;;;;;7.82;52.76;93263.72;2089803;28;20032;-83
2024/02/06 01:22:50;;;;;;;3.13;1.40;;;;;;;7.92;52.66;93261.34;2081001;28;20531;-84
2024/02/06 01:23:51;;;;;;;3.42;1.10;;;;;;;7.99;51.93;93261.28;2081316;28;20075;-83
2024/02/06 01:24:52;;;;;;;3.55;1.30;;;;;;;7.90;53.57;93258.31;2081456;28;20033;-80
2024/02/06 01:25:53;;;;;;;3.75;1.20;;;;;;;8.01;53.03;93265.06;2085020;28;20131;-83
2024/02/06 01:26:54;;;;;;;2.03;1.10;;;;;;;8.06;52.61;93264.63;2089452;28;20393;-83
2024/02/06 01:27:55;;;;;;;2.80;1.15;;;;;;;7.76;55.79;93261.88;2081368;28;20083;-80
2024/02/06 01:28:56;;;;;;;5.32;1.00;;;;;;;8.07;52.39;93255.50;2081466;28;20028;-82
2024/02/06 01:29:57;;;;;;;4.18;1.40;;;;;;;7.88;54.71;93263.28;2100602;28;20832;-83
2024/02/06 01:30:58;;;;;;;3.95;1.25;;;;;;;7.76;52.31;93261.88;2102858;28;20650;-82
2024/02/06 01:31:59;;;;;;;6.35;1.58;;;;;;;7.69;53.28;93260.03;2092647;28;20024;-82
2024/02/06 01:33:00;;;;;;;4.47;1.02;;;;;;;7.73;53.54;93262.69;2086317;28;20539;-84
2024/02/06 01:34:01;;;;;;;4.13;1.10;;;;;;;7.54;54.48;93266.63;2092700;28;20063;-82
2024/02/06 01:35:03;;;;;;;3.30;1.30;;;;;;;7.31;57.04;93275.16;2094034;28;20036;-83
2024/02/06 01:36:04;;;;;;;6.50;1.52;;;;;;;7.31;54.43;93269.81;2093405;28;20016;-82
2024/02/06 01:37:06;;;;;;;3.67;1.17;;;;;;;7.26;55.25;93273.66;2101120;28;20020;-81
2024/02/06 01:38:06;;;;;;;4.38;1.20;;;;;;;7.38;54.71;93275.09;2097620;28;20025;-81
2024/02/06 01:39:08;;;;;;;7.18;1.98;;;;;;;7.47;55.47;93279.97;2101965;28;20164;-81
2024/02/06 01:40:24;;;;;;;3.33;1.00;;;;;;;7.75;52.96;93276.34;2086536;28;20025;-81
2024/02/06 01:41:25;;;;;;;2.50;1.00;;;;;;;7.82;53.60;93269.06;2085085;28;20473;-80
2024/02/06 01:42:26;;;;;;;6.07;1.45;;;;;;;7.64;54.28;93275.66;2089870;28;20021;-81
2024/02/06 01:43:27;;;;;;;6.53;1.55;;;;;;;7.53;54.32;93273.09;2090767;28;20082;-84
2024/02/06 01:44:28;;;;;;;2.97;1.20;;;;;;;7.73;52.39;93282.06;2087384;28;20021;-83
2024/02/06 01:45:29;;;;;;;4.07;1.50;;;;;;;7.66;53.33;93274.13;2089521;28;20025;-82
2024/02/06 01:46:30;;;;;;;5.20;1.35;;;;;;;7.45;54.34;93275.03;2100695;28;20032;-80
2024/02/06 01:47:31;;;;;;;6.93;1.67;;;;;;;7.31;54.06;93281.22;2097599;28;20421;-81
2024/02/06 01:48:33;;;;;;;3.00;1.20;;;;;;;7.33;55.12;93280.81;2105369;28;20024;-81
2024/02/06 01:49:36;;;;;;;3.35;1.30;;;;;;;7.32;56.85;93284.63;2081532;28;20184;-82
2024/02/06 01:50:38;;;;;;;9.55;1.95;;;;;;;7.22;57.72;93277.50;2081551;28;20025;-81
2024/02/06 01:51:40;;;;;;;3.72;1.40;;;;;;;7.14;54.81;93284.00;2086371;28;20474;-82
2024/02/06 01:52:41;;;;;;;5.72;1.35;;;;;;;7.22;53.68;93280.91;2089626;28;20532;-82
2024/02/06 01:53:42;;;;;;;3.13;1.05;;;;;;;7.29;56.28;93274.78;2093494;28;20033;-82
2024/02/06 01:54:44;;;;;;;7.63;1.90;;;;;;;7.27;55.17;93279.72;2088363;28;20029;-82
2024/02/06 01:55:45;;;;;;;3.00;1.23;;;;;;;7.46;54.08;93281.88;2090509;28;20048;-84
2024/02/06 01:56:48;;;;;;;7.40;1.30;;;;;;;7.27;56.69;93280.47;2104629;28;20449;-81
2024/02/06 01:57:49;;;;;;;6.63;1.60;;;;;;;7.35;53.98;93283.84;2081432;28;20497;-82
2024/02/06 01:58:52;;;;;;;5.47;1.60;;;;;;;7.40;54.58;93280.78;2081083;28;20033;-81
2024/02/06 01:59:54;;;;;;;4.57;1.45;;;;;;;7.26;55.63;93278.22;2089694;28;20033;-82
2024/02/06 02:00:55;;;;;;;7.40;1.30;;;;;;;7.42;54.05;93280.38;2097929;28;20031;-80
2024/02/06 02:02:03;;;;;;;6.25;1.30;;;;;;;7.28;54.29;93282.00;2081349;28;20021;-84
2024/02/06 02:03:04;;;;;;;6.70;1.42;;;;;;;7.51;53.19;93267.41;2082972;28;20025;-82
2024/02/06 02:04:06;;;;;;;5.18;1.77;;;;;;;7.46;53.38;93281.88;2089179;28;20025;-83
2024/02/06 02:05:08;;;;;;;6.22;1.83;;;;;;;7.42;55.11;93281.16;2101908;28;20024;-82
2024/02/06 02:06:09;;;;;;;7.25;1.85;;;;;;;7.35;53.14;93281.19;2096989;28;20123;-81
2024/02/06 02:07:12;;;;;;;7.28;1.75;;;;;;;7.31;56.40;93275.16;2078545;28;20036;-80
2024/02/06 02:08:14;;;;;;;6.03;2.22;;;;;;;7.34;53.76;93271.72;2081356;28;20021;-83
2024/02/06 02:09:15;;;;;;;4.43;1.60;;;;;;;7.22;56.09;93272.16;2100021;28;20023;-81
2024/02/06 02:10:16;;;;;;;11.65;1.83;;;;;;;7.08;55.33;93275.69;2100630;28;20500;-80
2024/02/06 02:11:17;;;;;;;6.05;2.03;;;;;;;6.93;57.71;93268.91;2081484;28;20800;-83
2024/02/06 02:12:18;;;;;;;9.52;2.22;;;;;;;6.94;56.93;93267.78;2085029;28;20112;-81
2024/02/06 02:13:19;;;;;;;4.53;1.67;;;;;;;6.95;56.40;93277.28;2103735;28;20027;-82
2024/02/06 02:14:21;;;;;;;7.22;1.80;;;;;;;6.97;56.02;93257.13;2104414;28;20034;-82
2024/02/06 02:15:22;;;;;;;5.05;2.03;;;;;;;7.20;55.30;93274.44;2091086;28;20029;-82
2024/02/06 02:16:23;;;;;;;8.27;2.42;;;;;;;7.36;53.93;93261.44;2086349;28;20049;-80
2024/02/06 02:17:24;;;;;;;6.25;1.70;;;;;;;7.30;54.60;93263.75;2085955;28;20049;-81
2024/02/06 02:18:38;;;;;;;12.88;2.60;;;;;;;6.91;56.40;93258.69;2080873;28;20040;-81
2024/02/06 02:19:40;;;;;;;11.45;2.25;;;;;;;7.02;56.53;93259.41;2097465;28;20129;-81
2024/02/06 02:20:41;;;;;;;10.65;2.10;;;;;;;7.05;57.20;93261.25;2098078;28;20090;-82
2024/02/06 02:21:42;;;;;;;7.68;1.98;;;;;;;6.90;56.51;93262.50;2095090;28;20040;-82
2024/02/06 02:22:55;;;;;;;7.68;1.77;;;;;;;6.77;56.93;93256.88;2086142;28;20033;-81
2024/02/06 02:23:57;;;;;;;8.25;2.08;;;;;;;6.69;57.11;93258.03;2086945;28;20032;-82
2024/02/06 02:26:22;;;;;;;;;;;;;;;5.83;61.62;93254.88;2139907;27;20169;-82
2024/02/06 02:27:24;;;;;;;11.40;2.28;;;;;;;5.98;60.58;93251.09;2138739;27;19998;-83
2024/02/06 02:28:25;;;;;;;9.10;2.17;;;;;;;5.88;63.90;93256.38;2123261;27;20027;-81
2024/02/06 02:29:28;;;;;;;8.73;2.10;;;;;;;5.84;63.09;93258.28;2128777;27;20019;-82
2024/02/06 02:30:29;;;;;;;12.43;2.55;;;;;;;6.00;60.44;93254.09;2118578;28;20024;-80
2024/02/06 02:31:31;;;;;;;9.35;2.47;;;;;;;5.94;61.46;93253.00;2120712;27;20113;-83
2024/02/06 02:32:33;;;;;;;7.15;1.92;;;;;;;5.91;61.67;93256.38;2129763;27;20018;-82
2024/02/06 02:33:35;;;;;;;7.28;1.73;;;;;;;5.88;59.83;93265.09;2121328;28;20047;-83
2024/02/06 02:34:36;;;;;;;5.93;2.30;;;;;;;5.96;61.67;93257.91;2113098;27;20529;-80
2024/02/06 02:35:37;;;;;;;10.32;2.05;;;;;;;5.99;60.27;93251.84;2130095;27;20038;-81
2024/02/06 02:36:39;;;;;;;10.10;2.17;;;;;;;6.00;60.17;93256.75;2130126;27;20042;-82
2024/02/06 02:37:40;;;;;;;8.65;2.05;;;;;;;5.89;60.25;93261.31;2118952;28;20031;-79
2024/02/06 02:38:42;;;;;;;11.65;2.47;;;;;;;5.85;62.62;93257.16;2111971;27;20499;-83
2024/02/06 02:39:43;;;;;;;9.13;2.92;;;;;;;5.83;61.34;93260.16;2121498;27;20024;-81
2024/02/06 02:40:45;;;;;;;14.80;2.05;;;;;;;5.83;62.57;93254.88;2122672;27;20100;-81
2024/02/06 02:41:46;;;;;;;9.88;3.00;;;;;;;5.86;60.99;93245.41;2135998;27;20027;-82
2024/02/06 02:42:47;;;;;;;9.05;2.72;;;;;;;5.77;62.12;93243.88;2132157;27;20047;-79
2024/02/06 02:43:49;;;;;;;11.70;1.95;;;;;;;5.67;62.94;93252.63;2136813;27;20022;-81
2024/02/06 02:44:50;;;;;;;7.60;1.73;;;;;;;5.70;64.00;93254.50;2131835;27;20037;-82
2024/02/06 02:45:51;;;;;;;12.35;2.00;;;;;;;5.56;60.25;93255.28;2129772;27;20043;-81
2024/02/06 02:46:52;;;;;;;12.38;2.10;;;;;;;5.65;61.20;93254.13;2117731;27;20028;-81
2024/02/06 02:47:53;;;;;;;10.10;2.10;;;;;;;5.42;66.52;93242.03;2115594;28;20133;-81
2024/02/06 02:48:54;;;;;;;7.28;2.03;;;;;;;5.52;63.91;93243.91;2109560;27;20028;-80
2024/02/06 02:49:55;;;;;;;11.70;2.08;;;;;;;5.75;61.59;93230.28;2123342;27;20031;-81
2024/02/06 02:50:56;;;;;;;7.30;2.42;;;;;;;5.70;61.90;93241.25;2129943;27;20088;-81
2024/02/06 02:51:57;;;;;;;6.78;1.90;;;;;;;5.73;62.69;93239.72;2112317;28;20023;-80
2024/02/06 02:52:58;;;;;;;11.80;2.17;;;;;;;5.69;62.36;93234.44;2121318;27;20486;-80
2024/02/06 02:53:59;;;;;;;13.40;2.55;;;;;;;5.64;62.62;93232.16;2121585;27;20039;-81
2024/02/06 02:55:00;;;;;;;10.27;2.40;;;;;;;5.65;63.05;93227.63;2113004;28;20028;-80
2024/02/06 02:56:02;;;;;;;9.90;2.03;;;;;;;5.71;61.34;93226.09;2112899;27;20104;-82
2024/02/06 02:57:03;;;;;;;10.70;2.50;;;;;;;5.89;59.07;93221.53;2121598;27;20026;-82
2024/02/06 02:58:05;;;;;;;12.05;1.95;;;;;;;6.01;58.87;93221.16;2129932;27;20429;-81
2024/02/06 02:59:06;;;;;;;8.50;2.30;;;;;;;5.85;60.70;93220.78;2130138;27;20023;-82
2024/02/06 03:00:08;;;;;;;11.85;3.28;;;;;;;5.76;60.62;93228.38;2125631;27;20376;-81
2024/02/06 03:01:09;;;;;;;9.50;2.17;;;;;;;5.70;60.59;93227.97;2121526;27;20102;-82
2024/02/06 03:02:10;;;;;;;12.48;2.08;;;;;;;5.54;62.17;93219.69;2112989;28;20495;-80
2024/02/06 03:03:11;;;;;;;11.13;2.53;;;;;;;5.49;63.23;93220.81;2126212;27;20033;-82
2024/02/06 03:04:27;;;;;;;5.10;1.92;;;;;;;5.32;63.16;93228.78;2124931;27;20050;-82
2024/02/06 03:05:28;;;;;;;7.93;2.40;;;;;;;5.28;65.17;93228.78;2120051;28;20071;-81
2024/02/06 03:06:29;;;;;;;8.43;2.08;;;;;;;5.37;63.04;93220.47;2128615;27;20029;-81
2024/02/06 03:07:30;;;;;;;10.52;2.13;;;;;;;5.41;61.92;93221.97;2131638;27;20023;-81
2024/02/06 03:08:31;;;;;;;7.95;2.15;;;;;;;5.31;66.74;93225.34;2129856;27;20379;-79
2024/02/06 03:09:33;;;;;;;11.85;2.85;;;;;;;5.24;64.56;93223.47;2130310;27;20627;-80
2024/02/06 03:10:35;;;;;;;12.93;2.05;;;;;;;5.22;62.99;93217.81;2133964;27;20018;-80
2024/02/06 03:11:36;;;;;;;6.32;1.80;;;;;;;5.47;61.59;93203.78;2129569;27;20160;-81
2024/02/06 03:12:37;;;;;;;13.23;2.63;;;;;;;5.58;60.79;93211.75;2126067;27;20594;-81
2024/02/06 03:13:41;;;;;;;14.43;2.22;;;;;;;5.59;60.35;93215.91;2120573;27;20087;-81
2024/02/06 03:14:42;;;;;;;17.17;2.88;;;;;;;5.43;62.52;93203.03;2130285;27;20018;-80
2024/02/06 03:15:43;;;;;;;8.68;2.83;;;;;;;5.37;61.52;93210.59;2129807;27;20030;-79
2024/02/06 03:16:44;;;;;;;10.55;2.38;;;;;;;5.58;60.41;93198.47;2129642;27;20023;-83
2024/02/06 03:17:47;;;;;;;9.90;2.13;;;;;;;5.50;62.50;93197.72;2119393;27;20035;-83
2024/02/06 03:18:48;;;;;;;15.68;2.08;;;;;;;5.39;63.24;93196.97;2121639;27;20103;-82
2024/02/06 03:19:49;;;;;;;8.32;1.83;;;;;;;5.40;61.97;93198.47;2127784;27;20023;-81
2024/02/06 03:20:50;;;;;;;7.20;2.60;;;;;;;5.41;61.76;93194.72;2128795;27;20079;-80
2024/02/06 03:21:51;;;;;;;13.02;3.00;;;;;;;5.35;62.50;93196.97;2127178;27;20026;-79
2024/02/06 03:22:52;;;;;;;14.15;2.22;;;;;;;5.41;63.00;93200.00;2114833;27;20471;-83
2024/02/06 03:23:53;;;;;;;11.70;2.17;;;;;;;5.59;59.57;93200.75;2121367;27;20023;-79
2024/02/06 03:24:54;;;;;;;12.63;2.22;;;;;;;5.44;61.50;93196.56;2121356;27;20019;-83
2024/02/06 03:25:55;;;;;;;9.95;2.28;;;;;;;5.82;60.09;93195.00;2112347;27;20047;-83
2024/02/06 03:26:55;;;;;;;9.13;2.22;;;;;;;5.68;60.74;93200.34;2122641;27;20027;-82
2024/02/06 03:27:57;;;;;;;6.20;1.85;;;;;;;5.90;58.13;93201.06;2112645;28;20028;-81
2024/02/06 03:28:58;;;;;;;9.95;2.55;;;;;;;5.92;59.02;93207.50;2115596;27;20028;-80
2024/02/06 03:30:02;;;;;;;9.88;2.60;;;;;;;6.07;57.14;93202.16;2112712;28;20024;-81
2024/02/06 03:31:03;;;;;;;13.82;2.53;;;;;;;6.25;56.17;93202.84;2124756;27;20405;-79
2024/02/06 03:32:05;;;;;;;6.05;2.13;;;;;;;6.18;56.81;93208.94;2133815;27;20034;-82
2024/02/06 03:33:06;;;;;;;10.07;2.95;;;;;;;6.10;58.46;93206.69;2133866;27;20053;-79
2024/02/06 03:34:07;;;;;;;10.18;2.20;;;;;;;6.16;56.36;93199.88;2133730;27;20122;-81
2024/02/06 03:35:09;;;;;;;8.05;1.90;;;;;;;6.10;57.10;93206.69;2121195;27;20135;-82
2024/02/06 03:36:10;;;;;;;7.05;2.10;;;;;;;6.24;57.32;93207.41;2112217;28;20042;-79
2024/02/06 03:37:13;;;;;;;10.80;2.03;;;;;;;6.14;58.19;93207.44;2112065;28;20054;-82
2024/02/06 03:38:14;;;;;;;10.95;2.55;;;;;;;6.16;60.27;93207.81;2107989;28;20571;-81
2024/02/06 03:39:16;;;;;;;10.35;2.28;;;;;;;6.21;57.69;93210.06;2127495;27;20803;-81
2024/02/06 03:40:17;;;;;;;8.90;2.00;;;;;;;6.26;57.81;93205.13;2126807;27;20026;-80
2024/02/06 03:41:18;;;;;;;8.77;1.85;;;;;;;6.23;57.48;93218.41;2107014;28;20067;-79
2024/02/06 03:42:19;;;;;;;7.53;1.75;;;;;;;6.18;58.17;93219.56;2112808;28;20024;-80
2024/02/06 03:43:20;;;;;;;8.40;2.10;;;;;;;6.02;60.62;93209.38;2119997;27;20020;-82
2024/02/06 03:44:22;;;;;;;10.20;2.00;;;;;;;5.77;61.45;93212.06;2123897;27;20019;-80
2024/02/06 03:45:24;;;;;;;8.02;1.98;;;;;;;5.83;60.08;93204.47;2132339;27;20485;-81
2024/02/06 03:46:25;;;;;;;8.52;2.42;;;;;;;5.87;61.18;93201.81;2123959;27;20015;-80
2024/02/06 03:47:26;;;;;;;5.32;2.20;;;;;;;5.91;61.62;93213.91;2122961;27;20022;-80
2024/02/06 03:48:27;;;;;;;12.02;2.05;;;;;;;5.80;59.60;93213.97;2113577;28;20073;-81
2024/02/06 03:49:28;;;;;;;9.88;2.10;;;;;;;5.93;59.51;93214.34;2115434;28;20042;-81
2024/02/06 03:50:29;;;;;;;10.30;1.90;;;;;;;6.05;59.25;93211.25;2123666;27;20073;-80
2024/02/06 03:51:30;;;;;;;13.55;2.70;;;;;;;6.08;60.22;93215.03;2116612;27;20529;-80
2024/02/06 03:52:31;;;;;;;10.63;2.10;;;;;;;6.02;60.71;93214.69;2124916;27;20067;-83
2024/02/06 03:53:33;;;;;;;8.52;2.00;;;;;;;5.99;59.59;93223.41;2123835;27;20047;-80
2024/02/06 03:54:34;;;;;;;13.77;2.42;;;;;;;6.17;59.25;93206.69;2106873;28;20431;-82
2024/02/06 03:55:35;;;;;;;13.57;1.88;;;;;;;6.02;60.84;93212.03;2098564;28;20028;-82
2024/02/06 03:56:36;;;;;;;7.88;2.30;;;;;;;6.01;61.68;93215.06;2114714;27;20027;-79
2024/02/06 03:57:37;;;;;;;7.53;1.98;;;;;;;5.99;61.46;93210.16;2123684;27;20027;-82
2024/02/06 03:58:38;;;;;;;8.30;2.22;;;;;;;5.79;61.41;93207.16;2123848;27;20038;-82
2024/02/06 03:59:39;;;;;;;5.50;1.80;;;;;;;5.95;61.20;93201.44;2132943;27;20033;-80
2024/02/06 04:00:41;;;;;;;7.93;2.40;;;;;;;5.90;64.81;93216.97;2131810;27;20121;-81
2024/02/06 04:01:44;;;;;;;9.35;1.80;;;;;;;5.80;62.89;93205.25;2124425;27;20083;-82
2024/02/06 04:02:45;;;;;;;12.65;1.88;;;;;;;5.74;63.02;93210.16;2122721;27;20023;-81
2024/02/06 04:03:46;;;;;;;8.63;2.17;;;;;;;5.87;63.08;93213.16;2116330;27;20494;-80
2024/02/06 04:04:47;;;;;;;6.47;1.70;;;;;;;5.96;62.87;93207.50;2122970;27;20015;-83
2024/02/06 04:05:49;;;;;;;7.72;1.80;;;;;;;5.65;66.51;93195.78;2113869;27;20027;-83
2024/02/06 04:06:50;;;;;;;4.45;1.42;;;;;;;5.87;63.35;93205.22;2121206;27;20030;-80
2024/02/06 04:07:51;;;;;;;8.55;1.90;;;;;;;5.92;64.53;93202.19;2129072;27;20022;-78
2024/02/06 04:08:52;;;;;;;5.25;2.00;;;;;;;5.88;64.81;93204.06;2126931;27;20463;-83
2024/02/06 04:09:53;;;;;;;5.65;2.30;;;;;;;5.78;66.89;93197.66;2123708;27;20023;-82
2024/02/06 04:10:56;;;;;;;5.95;1.65;;;;;;;5.79;69.25;93206.38;2115156;28;20064;-83
2024/02/06 04:11:57;;;;;;;7.63;1.50;;;;;;;5.86;66.96;93203.72;2114526;27;20019;-82
2024/02/06 04:12:58;;;;;;;7.88;1.75;;;;;;;5.89;67.17;93208.25;2115139;28;20099;-82
2024/02/06 04:13:59;;;;;;;6.97;2.42;;;;;;;5.77;68.75;93203.34;2109855;27;20090;-81
2024/02/06 04:15:00;;;;;;;6.63;2.15;;;;;;;5.76;68.52;93197.28;2123467;27;20054;-80
2024/02/06 04:16:04;;;;;;;4.65;1.67;;;;;;;5.88;67.82;93198.00;2131332;27;20072;-81
2024/02/06 04:17:05;;;;;;;6.38;1.58;;;;;;;5.91;69.04;93200.66;2115922;28;20110;-79
2024/02/06 04:18:06;;;;;;;6.35;1.73;;;;;;;5.80;69.81;93198.03;2106568;28;20068;-83
2024/02/06 04:19:07;;;;;;;8.13;2.10;;;;;;;5.80;70.02;93194.66;2114993;27;20098;-81
2024/02/06 04:20:08;;;;;;;6.75;2.00;;;;;;;5.63;72.08;93203.38;2123457;27;20457;-81
2024/02/06 04:21:09;;;;;;;8.85;1.85;;;;;;;5.60;74.68;93196.94;2120501;27;20101;-81
2024/02/06 04:22:10;;;;;;;6.95;1.80;;;;;;;5.49;74.51;93199.63;2111126;28;20163;-83
2024/02/06 04:23:11;;;;;;;5.43;1.80;;;;;;;5.60;73.56;93204.91;2119786;27;20114;-80
2024/02/06 04:24:12;;;;;;;7.18;1.80;;;;;;;5.63;75.08;93203.38;2115114;27;20019;-81
2024/02/06 04:25:13;;;;;;;6.90;2.17;;;;;;;5.64;74.32;93216.25;2119183;27;20047;-81
2024/02/06 04:26:14;;;;;;;4.55;1.70;;;;;;;5.61;75.72;93209.06;2119662;27;20051;-82
2024/02/06 04:27:15;;;;;;;7.93;2.10;;;;;;;5.60;76.56;93212.84;2123402;27;20380;-81
2024/02/06 04:28:16;;;;;;;2.63;1.75;;;;;;;5.51;77.26;93210.59;2132114;27;20042;-84
2024/02/06 04:29:17;;;;;;;3.53;1.60;;;;;;;5.39;78.47;93208.31;2126236;27;20019;-82
2024/02/06 04:30:19;;;;;;;5.07;2.08;;;;;;;5.49;78.96;93222.72;2106649;28;20070;-80
2024/02/06 04:31:20;;;;;;;7.43;2.20;;;;;;;5.38;82.04;93209.47;2106731;28;20504;-83
2024/02/06 04:32:21;;;;;;;5.18;2.00;;;;;;;5.36;81.68;93209.09;2125447;27;20019;-81
2024/02/06 04:33:22;;;;;;;5.90;2.00;;;;;;;5.32;82.89;93213.66;2123422;27;20027;-83
2024/02/06 04:34:24;;;;;;;6.53;1.90;;;;;;;5.34;84.79;93216.66;2123241;27;20858;-81
2024/02/06 04:35:25;;;;;;;5.95;2.40;;;;;;;5.34;83.91;93213.25;2131957;27;20015;-80
2024/02/06 04:36:26;;;;;;;8.30;1.80;;;;;;;5.27;86.69;93212.13;2121865;27;20156;-79
2024/02/06 04:37:27;;;;;;;7.78;1.73;;;;;;;5.17;88.73;93215.53;2109740;28;20569;-82
2024/02/06 04:38:28;;;;;;;6.45;1.67;;;;;;;5.17;88.17;93223.47;2122007;27;20015;-83
2024/02/06 04:39:29;;;;;;;7.40;2.20;;;;;;;5.32;87.96;93218.19;2116766;27;20024;-84
2024/02/06 04:40:30;;;;;;;6.20;2.15;;;;;;;5.26;89.66;93207.19;2123459;27;20540;-81
2024/02/06 04:41:32;;;;;;;5.00;1.77;;;;;;;5.37;89.10;93221.22;2114786;28;20358;-82
2024/02/06 04:42:32;;;;;;;5.55;1.95;;;;;;;5.37;89.15;93210.59;2106610;28;20046;-83
2024/02/06 04:43:33;;;;;;;4.25;1.90;;;;;;;5.35;90.10;93223.47;2115196;27;20065;-79
2024/02/06 04:44:34;;;;;;;8.20;2.47;;;;;;;5.41;89.86;93219.31;2132212;27;20412;-82
2024/02/06 04:45:35;;;;;;;6.55;2.15;;;;;;;5.53;90.55;93218.94;2123206;27;20027;-83
2024/02/06 04:46:37;;;;;;;5.85;2.42;;;;;;;5.28;94.17;93220.84;2102354;28;20032;-81
2024/02/06 04:47:38;;;;;;;3.42;1.98;;;;;;;5.23;95.61;93224.63;2111513;28;20024;-80
2024/02/06 04:48:39;;;;;;;4.53;2.30;;;;;;;5.26;95.52;93225.75;2119671;27;20547;-81
2024/02/06 04:49:40;;;;;;;5.22;2.65;;;;;;;5.58;93.89;93225.75;2114229;28;20059;-82
2024/02/06 04:50:41;;;;;;;5.80;2.10;;;;;;;5.27;95.84;93225.38;2115029;27;20039;-81
2024/02/06 04:51:42;;;;;;;6.72;2.10;;;;;;;5.38;95.80;93228.03;2112820;27;20533;-83
2024/02/06 04:52:43;;;;;;;4.60;2.15;;;;;;;5.30;98.17;93218.56;2110835;28;20020;-80
2024/02/06 04:53:44;;;;;;;4.75;2.30;;;;;;;5.46;97.67;93221.59;2114864;28;20031;-80
2024/02/06 04:54:45;;;;;;;6.50;2.30;;;;;;;5.47;97.90;93220.44;2108595;27;20039;-81